Time;durP1;ratioP1;P1;durP2;ratioP2;P2;SDS_P1;SDS_P2;PMS_P1;PMS_P2;Temp;Humidity;BMP_temperature;BMP_pressure;BME280_temperature;BME280_humidity;BME280_pressure;Samples;Min_cycle;Max_cycle;Signal;HPM_P1;HPM_P2
2024/03/23 00:00:24;;;;;;;8.35;5.20;;;;;;;;;;10272152;28;20527;-72
2024/03/23 00:05:29;;;;;;;8.32;4.20;;;;;;;;;;10279173;28;20045;-72
2024/03/23 00:10:36;;;;;;;6.78;4.25;;;;;;;;;;10250276;28;20058;-73
2024/03/23 00:15:41;;;;;;;5.30;3.83;;;;;;;;;;10237928;28;20046;-72
2024/03/23 00:20:47;;;;;;;6.32;4.47;;;;;;;;;;10245751;28;20066;-73
2024/03/23 00:25:52;;;;;;;7.68;4.40;;;;;;;;;;10232963;28;20088;-73
2024/03/23 00:30:57;;;;;;;8.07;4.30;;;;;;;;;;10244859;28;20485;-72
2024/03/23 00:36:02;;;;;;;9.20;4.18;;;;;;;;;;10262306;28;20043;-73
2024/03/23 00:41:07;;;;;;;6.50;4.03;;;;;;;;;;10248302;28;20050;-73
2024/03/23 00:46:12;;;;;;;5.38;4.00;;;;;;;;;;10235420;28;20066;-73
2024/03/23 00:51:17;;;;;;;7.43;4.30;;;;;;;;;;10239572;28;20097;-72
2024/03/23 00:56:21;;;;;;;7.43;4.70;;;;;;;;;;10238214;28;20035;-73
2024/03/23 01:01:23;;;;;;;10.73;5.13;;;;;;;;;;10238612;28;20035;-73
2024/03/23 01:06:26;;;;;;;6.38;4.50;;;;;;;;;;10246688;28;20046;-73
2024/03/23 01:11:29;;;;;;;6.35;4.03;;;;;;;;;;10246442;28;20736;-73
2024/03/23 01:16:32;;;;;;;6.30;4.40;;;;;;;;;;10242410;28;20043;-73
2024/03/23 01:21:35;;;;;;;9.68;5.40;;;;;;;;;;10255058;28;20055;-73
2024/03/23 01:26:38;;;;;;;7.72;5.38;;;;;;;;;;10240956;28;20039;-73
2024/03/23 01:31:41;;;;;;;8.80;5.65;;;;;;;;;;10248171;28;20051;-73
2024/03/23 01:36:43;;;;;;;9.80;6.10;;;;;;;;;;10264309;28;20065;-73
2024/03/23 01:41:47;;;;;;;9.57;5.93;;;;;;;;;;10258334;28;20053;-73
2024/03/23 01:46:49;;;;;;;10.73;7.05;;;;;;;;;;10249403;28;20050;-73
2024/03/23 01:51:52;;;;;;;11.68;6.95;;;;;;;;;;10249382;28;20051;-73
2024/03/23 01:56:56;;;;;;;10.63;6.78;;;;;;;;;;10247046;28;20519;-73
2024/03/23 02:01:58;;;;;;;8.98;6.50;;;;;;;;;;10247274;28;20501;-73
2024/03/23 02:07:01;;;;;;;8.32;5.90;;;;;;;;;;10245556;28;20077;-73
2024/03/23 02:12:05;;;;;;;9.27;5.82;;;;;;;;;;10249928;28;20058;-73
2024/03/23 02:17:07;;;;;;;9.77;6.20;;;;;;;;;;10249396;28;20524;-73
2024/03/23 02:22:11;;;;;;;10.45;6.35;;;;;;;;;;10241712;28;20651;-73
2024/03/23 02:27:15;;;;;;;9.80;5.72;;;;;;;;;;10232729;28;20082;-73
2024/03/23 02:32:17;;;;;;;10.45;6.13;;;;;;;;;;10238099;28;20070;-73
2024/03/23 02:37:19;;;;;;;12.23;7.07;;;;;;;;;;10249867;28;20082;-73
2024/03/23 02:42:23;;;;;;;11.55;7.65;;;;;;;;;;10242103;28;20050;-73
2024/03/23 02:47:25;;;;;;;11.07;7.80;;;;;;;;;;10246243;28;20054;-73
2024/03/23 02:52:28;;;;;;;10.68;7.22;;;;;;;;;;10256070;28;20439;-73
2024/03/23 02:57:32;;;;;;;6.00;4.05;;;;;;;;;;10245960;28;20050;-73
2024/03/23 03:02:34;;;;;;;4.80;2.60;;;;;;;;;;10249481;28;20644;-72
2024/03/23 03:07:39;;;;;;;2.33;2.08;;;;;;;;;;10303711;28;20043;-73
2024/03/23 03:12:42;;;;;;;1.92;1.70;;;;;;;;;;10225540;28;20051;-73
2024/03/23 03:17:45;;;;;;;1.63;1.30;;;;;;;;;;10237303;28;20116;-72
2024/03/23 03:22:48;;;;;;;2.60;1.60;;;;;;;;;;10232480;28;20047;-73
2024/03/23 03:27:52;;;;;;;1.25;1.10;;;;;;;;;;10231294;28;20059;-73
2024/03/23 03:32:55;;;;;;;1.30;1.20;;;;;;;;;;10254417;28;20050;-73
2024/03/23 03:37:57;;;;;;;2.00;1.45;;;;;;;;;;10242882;28;20049;-73
2024/03/23 03:43:01;;;;;;;1.92;1.30;;;;;;;;;;10297922;28;20047;-72
2024/03/23 03:48:03;;;;;;;1.25;1.00;;;;;;;;;;10231496;28;20662;-73
2024/03/23 03:53:06;;;;;;;2.20;1.10;;;;;;;;;;10223584;28;20108;-73
2024/03/23 03:58:10;;;;;;;1.73;1.10;;;;;;;;;;10242177;28;20047;-73
2024/03/23 04:03:12;;;;;;;3.58;1.90;;;;;;;;;;10242634;28;20049;-73
2024/03/23 04:08:14;;;;;;;2.00;1.70;;;;;;;;;;10231029;28;20059;-72
2024/03/23 04:13:18;;;;;;;2.40;1.40;;;;;;;;;;10244159;28;20051;-72
2024/03/23 04:18:21;;;;;;;1.63;1.35;;;;;;;;;;10215607;28;20038;-72
2024/03/23 04:23:23;;;;;;;2.33;1.70;;;;;;;;;;10240609;28;20049;-72
2024/03/23 04:28:27;;;;;;;3.08;1.88;;;;;;;;;;10231406;28;20400;-73
2024/03/23 04:33:29;;;;;;;2.50;2.10;;;;;;;;;;10238819;28;20136;-72
2024/03/23 04:38:31;;;;;;;3.80;2.38;;;;;;;;;;10240966;28;20511;-72
2024/03/23 04:43:35;;;;;;;3.00;2.30;;;;;;;;;;10235134;28;20060;-73
2024/03/23 04:48:38;;;;;;;3.50;2.85;;;;;;;;;;10231824;28;20497;-73
2024/03/23 04:53:40;;;;;;;2.85;1.80;;;;;;;;;;10245708;28;20092;-72
2024/03/23 04:58:44;;;;;;;1.73;1.30;;;;;;;;;;10255137;28;20532;-75
2024/03/23 05:03:47;;;;;;;1.42;1.23;;;;;;;;;;10282049;28;20059;-73
2024/03/23 05:08:51;;;;;;;3.13;1.10;;;;;;;;;;10254604;28;20623;-73
2024/03/23 05:13:54;;;;;;;2.38;1.20;;;;;;;;;;10336121;28;20042;-73
2024/03/23 05:18:57;;;;;;;2.72;1.20;;;;;;;;;;10366406;23;20050;-73
2024/03/23 05:23:59;;;;;;;2.70;1.42;;;;;;;;;;10323027;28;20455;-72
2024/03/23 05:29:03;;;;;;;1.88;1.30;;;;;;;;;;10325255;28;20369;-73
2024/03/23 05:34:05;;;;;;;1.13;1.00;;;;;;;;;;10306022;28;20050;-72
2024/03/23 05:39:07;;;;;;;2.80;1.55;;;;;;;;;;10333660;28;20612;-73
2024/03/23 05:44:11;;;;;;;1.50;1.40;;;;;;;;;;10330445;28;20050;-73
2024/03/23 05:49:14;;;;;;;1.25;0.90;;;;;;;;;;10311893;28;20050;-73
2024/03/23 05:54:16;;;;;;;2.05;1.30;;;;;;;;;;10356635;28;20806;-72
2024/03/23 05:59:20;;;;;;;3.72;1.50;;;;;;;;;;10331177;28;20050;-72
2024/03/23 06:04:22;;;;;;;1.67;1.20;;;;;;;;;;10318066;28;20039;-73
2024/03/23 06:09:25;;;;;;;3.35;2.13;;;;;;;;;;10310561;28;20031;-73
2024/03/23 06:14:29;;;;;;;1.88;1.60;;;;;;;;;;10323553;28;20502;-73
2024/03/23 06:19:31;;;;;;;5.57;2.00;;;;;;;;;;10304257;28;20053;-72
2024/03/23 06:24:33;;;;;;;4.68;2.35;;;;;;;;;;10319382;28;20046;-72
2024/03/23 06:29:37;;;;;;;2.17;1.33;;;;;;;;;;10343194;28;20038;-72
2024/03/23 06:34:41;;;;;;;3.38;1.58;;;;;;;;;;10353391;28;20506;-73
2024/03/23 06:39:46;;;;;;;5.78;2.05;;;;;;;;;;10315697;28;20722;-72
2024/03/23 06:44:50;;;;;;;3.33;1.77;;;;;;;;;;10314875;28;20530;-73
2024/03/23 06:49:52;;;;;;;8.25;1.90;;;;;;;;;;10336291;28;20042;-72
2024/03/23 06:54:55;;;;;;;3.63;1.73;;;;;;;;;;10325507;28;20056;-72
2024/03/23 06:59:58;;;;;;;7.47;3.13;;;;;;;;;;10331387;28;20048;-73
2024/03/23 07:05:01;;;;;;;7.75;3.20;;;;;;;;;;10338169;28;20092;-73
2024/03/23 07:10:03;;;;;;;5.45;2.60;;;;;;;;;;10332323;28;20035;-73
2024/03/23 07:15:08;;;;;;;11.07;4.55;;;;;;;;;;10319752;28;20050;-72
2024/03/23 07:20:13;;;;;;;6.82;3.45;;;;;;;;;;10309192;28;20385;-74
2024/03/23 07:25:15;;;;;;;4.38;2.40;;;;;;;;;;10336570;28;20200;-74
2024/03/23 07:30:19;;;;;;;7.07;3.58;;;;;;;;;;10348385;28;20043;-75
2024/03/23 07:35:21;;;;;;;5.45;2.80;;;;;;;;;;10351061;28;20517;-75
2024/03/23 07:40:23;;;;;;;2.88;2.08;;;;;;;;;;10329395;28;20447;-75
2024/03/23 07:45:27;;;;;;;9.80;3.40;;;;;;;;;;10332994;28;20077;-75
2024/03/23 07:50:29;;;;;;;7.57;3.00;;;;;;;;;;10336356;28;20062;-75
2024/03/23 07:55:32;;;;;;;8.30;2.95;;;;;;;;;;10351232;28;20038;-75
2024/03/23 08:00:36;;;;;;;3.67;2.28;;;;;;;;;;10325141;28;20054;-75
2024/03/23 08:05:38;;;;;;;5.38;2.78;;;;;;;;;;10308989;28;20034;-76
2024/03/23 08:10:49;;;;;;;6.68;2.72;;;;;;;;;;10282493;28;20069;-75
2024/03/23 08:15:56;;;;;;;8.10;3.00;;;;;;;;;;10291975;28;20125;-75
2024/03/23 08:21:00;;;;;;;9.10;3.60;;;;;;;;;;10296728;28;20103;-75
2024/03/23 08:26:03;;;;;;;5.75;2.83;;;;;;;;;;10319126;28;20042;-75
2024/03/23 08:31:08;;;;;;;8.93;3.88;;;;;;;;;;10326739;28;20049;-75
2024/03/23 08:36:13;;;;;;;10.65;3.25;;;;;;;;;;10317843;28;20046;-75
2024/03/23 08:41:16;;;;;;;12.27;3.80;;;;;;;;;;10334828;28;20046;-75
2024/03/23 08:46:19;;;;;;;9.07;3.38;;;;;;;;;;10314757;28;20046;-73
2024/03/23 08:51:22;;;;;;;10.40;3.30;;;;;;;;;;10301226;28;20043;-73
2024/03/23 08:56:24;;;;;;;10.82;3.70;;;;;;;;;;10323746;28;20069;-73
2024/03/23 09:01:28;;;;;;;8.73;3.17;;;;;;;;;;10305380;28;20042;-75
2024/03/23 09:06:30;;;;;;;11.13;3.13;;;;;;;;;;10332481;28;20045;-75
2024/03/23 09:11:33;;;;;;;10.32;3.33;;;;;;;;;;10340885;28;20046;-75
2024/03/23 09:16:36;;;;;;;10.98;3.10;;;;;;;;;;10307486;28;20046;-75
2024/03/23 09:21:39;;;;;;;10.95;3.22;;;;;;;;;;10295363;28;20039;-75
2024/03/23 09:26:41;;;;;;;8.23;2.90;;;;;;;;;;10303317;28;20051;-75
2024/03/23 09:31:45;;;;;;;11.50;2.95;;;;;;;;;;10306831;28;20051;-75
2024/03/23 09:36:48;;;;;;;7.80;2.88;;;;;;;;;;10295209;28;20745;-75
2024/03/23 09:41:50;;;;;;;8.70;2.90;;;;;;;;;;10314880;28;20050;-75
2024/03/23 09:46:54;;;;;;;10.05;3.67;;;;;;;;;;10310298;28;20054;-75
2024/03/23 09:51:57;;;;;;;5.85;2.20;;;;;;;;;;10307592;28;20515;-75
2024/03/23 09:57:00;;;;;;;7.53;2.03;;;;;;;;;;10310329;28;20050;-76
2024/03/23 10:02:04;;;;;;;3.78;2.03;;;;;;;;;;10315718;28;20049;-75
2024/03/23 10:07:13;;;;;;;4.90;1.65;;;;;;;;;;10328489;28;20086;-75
2024/03/23 10:12:20;;;;;;;7.22;2.22;;;;;;;;;;10355036;28;20058;-75
2024/03/23 10:17:24;;;;;;;5.68;2.30;;;;;;;;;;10313303;28;20042;-73
2024/03/23 10:22:27;;;;;;;10.98;3.05;;;;;;;;;;10312302;28;20111;-73
2024/03/23 10:27:29;;;;;;;9.48;3.45;;;;;;;;;;10325071;28;20043;-73
2024/03/23 10:32:33;;;;;;;7.13;2.70;;;;;;;;;;10324653;28;20572;-73
2024/03/23 10:37:36;;;;;;;6.22;2.95;;;;;;;;;;10314465;28;20061;-73
2024/03/23 10:42:39;;;;;;;8.07;2.90;;;;;;;;;;10344243;28;20050;-73
2024/03/23 10:47:43;;;;;;;8.98;3.65;;;;;;;;;;10314172;28;20065;-73
2024/03/23 10:52:49;;;;;;;8.68;3.05;;;;;;;;;;10358024;28;20042;-73
2024/03/23 10:57:54;;;;;;;9.77;3.47;;;;;;;;;;10346012;28;20050;-73
2024/03/23 11:02:59;;;;;;;6.63;2.60;;;;;;;;;;10307657;28;20057;-73
2024/03/23 11:08:01;;;;;;;7.18;2.70;;;;;;;;;;10314054;28;20038;-73
2024/03/23 11:13:23;;;;;;;8.18;3.20;;;;;;;;;;10351273;28;20042;-73
2024/03/23 11:18:27;;;;;;;8.07;3.50;;;;;;;;;;10339830;28;20038;-73
2024/03/23 11:23:30;;;;;;;8.57;2.92;;;;;;;;;;10329986;28;20039;-73
2024/03/23 11:28:32;;;;;;;8.73;2.97;;;;;;;;;;10301965;28;20054;-73
2024/03/23 11:33:35;;;;;;;7.88;3.03;;;;;;;;;;10303394;28;20043;-73
2024/03/23 11:38:38;;;;;;;6.50;2.30;;;;;;;;;;10316217;28;20042;-73
2024/03/23 11:43:40;;;;;;;5.28;2.40;;;;;;;;;;10341607;28;20910;-73
2024/03/23 11:48:51;;;;;;;3.35;2.08;;;;;;;;;;10343120;28;20504;-73
2024/03/23 11:53:53;;;;;;;4.35;2.10;;;;;;;;;;10347703;28;20449;-73
2024/03/23 11:58:55;;;;;;;4.53;2.22;;;;;;;;;;10355280;28;20065;-73
2024/03/23 12:03:59;;;;;;;3.22;1.63;;;;;;;;;;10306486;28;20034;-73
2024/03/23 12:09:07;;;;;;;6.72;2.47;;;;;;;;;;10305503;28;20055;-73
2024/03/23 12:14:09;;;;;;;4.70;1.77;;;;;;;;;;10357605;28;20050;-73
2024/03/23 12:19:13;;;;;;;5.47;1.88;;;;;;;;;;10341055;28;20031;-73
2024/03/23 12:24:15;;;;;;;7.18;1.40;;;;;;;;;;10328536;28;20416;-74
2024/03/23 12:29:18;;;;;;;3.63;1.30;;;;;;;;;;10309799;28;20048;-73
2024/03/23 12:34:22;;;;;;;1.38;0.98;;;;;;;;;;10335609;28;20054;-73
2024/03/23 12:39:24;;;;;;;2.88;1.30;;;;;;;;;;10332763;28;20050;-73
2024/03/23 12:44:27;;;;;;;3.40;1.17;;;;;;;;;;10302335;28;20054;-73
2024/03/23 12:49:31;;;;;;;0.60;0.60;;;;;;;;;;10301248;28;20515;-73
2024/03/23 12:54:33;;;;;;;0.98;0.50;;;;;;;;;;10320018;28;20038;-73
2024/03/23 12:59:36;;;;;;;1.13;0.70;;;;;;;;;;10302407;28;20096;-73
2024/03/23 13:04:40;;;;;;;1.20;0.65;;;;;;;;;;10291122;28;20554;-73
2024/03/23 13:09:42;;;;;;;1.45;0.60;;;;;;;;;;10335056;28;20050;-73
2024/03/23 13:14:44;;;;;;;1.90;0.73;;;;;;;;;;10347370;28;20149;-73
2024/03/23 13:19:48;;;;;;;1.45;0.70;;;;;;;;;;10344769;28;20065;-73
2024/03/23 13:24:51;;;;;;;1.60;0.60;;;;;;;;;;10327229;28;20043;-75
2024/03/23 13:29:53;;;;;;;1.60;0.60;;;;;;;;;;10325205;28;20046;-75
2024/03/23 13:34:56;;;;;;;1.35;0.60;;;;;;;;;;10325140;28;20043;-75
2024/03/23 13:39:59;;;;;;;0.88;0.47;;;;;;;;;;10307517;28;20049;-75
2024/03/23 13:45:01;;;;;;;1.17;0.50;;;;;;;;;;10341664;28;20052;-75
2024/03/23 13:50:07;;;;;;;0.93;0.60;;;;;;;;;;10301471;28;20518;-75
2024/03/23 13:55:11;;;;;;;1.43;0.70;;;;;;;;;;10306603;28;20042;-75
2024/03/23 14:00:15;;;;;;;1.88;0.68;;;;;;;;;;10288633;28;20047;-75
2024/03/23 14:05:19;;;;;;;1.98;1.15;;;;;;;;;;10335308;28;20123;-75
2024/03/23 14:10:21;;;;;;;2.05;0.80;;;;;;;;;;10329451;28;20039;-75
2024/03/23 14:15:24;;;;;;;3.05;0.80;;;;;;;;;;10313469;28;20049;-75
2024/03/23 14:20:27;;;;;;;1.50;0.70;;;;;;;;;;10328026;28;20036;-75
2024/03/23 14:25:30;;;;;;;2.67;0.82;;;;;;;;;;10314405;28;20062;-75
2024/03/23 14:30:32;;;;;;;1.83;0.93;;;;;;;;;;10357634;28;20039;-73
2024/03/23 14:35:36;;;;;;;3.88;1.20;;;;;;;;;;10352999;28;20483;-73
2024/03/23 14:40:39;;;;;;;3.50;0.80;;;;;;;;;;10354014;28;20047;-73
2024/03/23 14:46:05;;;;;;;2.97;0.85;;;;;;;;;;10325177;28;20054;-73
2024/03/23 14:51:09;;;;;;;;;;;;;;;;;;10310161;28;20506;-74
2024/03/23 14:56:13;;;;;;;2.92;0.70;;;;;;;;;;10312728;28;19967;-73
2024/03/23 15:01:15;;;;;;;5.88;1.00;;;;;;;;;;10311930;28;20035;-74
2024/03/23 15:06:19;;;;;;;2.92;0.90;;;;;;;;;;10350393;28;20574;-73
2024/03/23 15:11:22;;;;;;;2.97;0.60;;;;;;;;;;10320383;28;20092;-73
2024/03/23 15:16:25;;;;;;;2.45;0.98;;;;;;;;;;10332318;28;20047;-73
2024/03/23 15:21:29;;;;;;;2.13;0.90;;;;;;;;;;10312112;28;20135;-73
2024/03/23 15:26:31;;;;;;;3.95;0.95;;;;;;;;;;10318478;28;20042;-73
2024/03/23 15:31:33;;;;;;;2.40;0.70;;;;;;;;;;10309712;28;20057;-74
2024/03/23 15:36:38;;;;;;;1.55;0.70;;;;;;;;;;10326382;28;20046;-73
2024/03/23 15:41:40;;;;;;;0.75;0.60;;;;;;;;;;10349255;28;20087;-73
2024/03/23 15:46:43;;;;;;;1.45;0.63;;;;;;;;;;10347296;28;20061;-73
2024/03/23 15:51:46;;;;;;;1.15;0.70;;;;;;;;;;10309186;28;20360;-73
2024/03/23 15:56:49;;;;;;;3.20;1.00;;;;;;;;;;10315589;28;20046;-73
2024/03/23 16:01:51;;;;;;;4.45;0.98;;;;;;;;;;10312459;28;20046;-73
2024/03/23 16:06:54;;;;;;;2.58;0.90;;;;;;;;;;10311761;28;20042;-73
2024/03/23 16:11:57;;;;;;;0.70;0.70;;;;;;;;;;10301046;28;20042;-73
2024/03/23 16:16:59;;;;;;;2.28;0.90;;;;;;;;;;10347483;28;20042;-73
2024/03/23 16:22:03;;;;;;;1.40;0.80;;;;;;;;;;10318031;28;20042;-73
2024/03/23 16:27:05;;;;;;;0.85;0.70;;;;;;;;;;10353431;28;20099;-73
2024/03/23 16:32:08;;;;;;;1.67;0.90;;;;;;;;;;10305651;28;20042;-73
2024/03/23 16:37:11;;;;;;;3.63;1.02;;;;;;;;;;10322304;28;20280;-73
2024/03/23 16:42:14;;;;;;;0.50;0.50;;;;;;;;;;10310303;28;20049;-73
2024/03/23 16:47:16;;;;;;;2.58;1.08;;;;;;;;;;10310150;28;20043;-73
2024/03/23 16:52:20;;;;;;;1.73;0.93;;;;;;;;;;10342707;28;20396;-73
2024/03/23 16:57:22;;;;;;;2.38;0.68;;;;;;;;;;10334433;28;20065;-73
2024/03/23 17:02:24;;;;;;;0.75;0.63;;;;;;;;;;10321965;28;20038;-73
2024/03/23 17:07:28;;;;;;;0.40;0.40;;;;;;;;;;10346921;28;20543;-73
2024/03/23 17:12:30;;;;;;;0.85;0.50;;;;;;;;;;10329531;28;20053;-73
2024/03/23 17:17:33;;;;;;;0.88;0.57;;;;;;;;;;10317192;28;20047;-73
2024/03/23 17:22:37;;;;;;;0.77;0.70;;;;;;;;;;10375571;22;20054;-75
2024/03/23 17:27:39;;;;;;;1.48;1.20;;;;;;;;;;10289713;28;20125;-75
2024/03/23 17:32:42;;;;;;;2.72;1.60;;;;;;;;;;10232473;28;20766;-75
2024/03/23 17:37:46;;;;;;;2.90;1.65;;;;;;;;;;10246639;28;20046;-75
2024/03/23 17:42:48;;;;;;;3.75;1.98;;;;;;;;;;10248602;28;20054;-75
2024/03/23 17:47:51;;;;;;;1.48;1.17;;;;;;;;;;10227621;28;20035;-76
2024/03/23 17:52:55;;;;;;;2.78;1.05;;;;;;;;;;10240229;28;20039;-75
2024/03/23 17:58:00;;;;;;;1.75;0.90;;;;;;;;;;10241014;28;20047;-75
2024/03/23 18:03:03;;;;;;;3.35;1.13;;;;;;;;;;10248168;28;20051;-75
2024/03/23 18:08:08;;;;;;;0.88;0.80;;;;;;;;;;10269367;28;20559;-76
2024/03/23 18:13:11;;;;;;;3.20;1.13;;;;;;;;;;10248878;28;20139;-76
2024/03/23 18:18:13;;;;;;;1.98;0.80;;;;;;;;;;10258260;28;20157;-75
2024/03/23 18:23:17;;;;;;;1.00;0.80;;;;;;;;;;10262796;28;20156;-75
2024/03/23 18:28:20;;;;;;;0.70;0.50;;;;;;;;;;10238412;28;20056;-75
2024/03/23 18:33:22;;;;;;;1.50;0.52;;;;;;;;;;10262993;28;20043;-75
2024/03/23 18:38:26;;;;;;;1.17;0.95;;;;;;;;;;10263775;28;20048;-75
2024/03/23 18:43:29;;;;;;;1.05;0.93;;;;;;;;;;10255504;28;20043;-75
2024/03/23 18:48:31;;;;;;;1.15;0.65;;;;;;;;;;10243200;28;20620;-75
2024/03/23 18:53:35;;;;;;;1.08;0.60;;;;;;;;;;10252653;28;20615;-75
2024/03/23 18:58:38;;;;;;;1.27;0.77;;;;;;;;;;10250662;28;20535;-75
2024/03/23 19:03:40;;;;;;;1.55;1.02;;;;;;;;;;10249776;28;20051;-76
2024/03/23 19:08:44;;;;;;;1.35;0.90;;;;;;;;;;10245767;28;20454;-75
2024/03/23 19:13:46;;;;;;;0.65;0.50;;;;;;;;;;10246726;28;20560;-75
2024/03/23 19:18:49;;;;;;;0.70;0.63;;;;;;;;;;10235443;28;20169;-75
2024/03/23 19:23:53;;;;;;;0.57;0.50;;;;;;;;;;10246727;28;20043;-75
2024/03/23 19:28:55;;;;;;;0.40;0.38;;;;;;;;;;10243193;28;20504;-75
2024/03/23 19:33:57;;;;;;;0.57;0.57;;;;;;;;;;10241048;28;20084;-75
2024/03/23 19:39:03;;;;;;;0.80;0.50;;;;;;;;;;10240079;28;20059;-75
2024/03/23 19:44:05;;;;;;;0.60;0.60;;;;;;;;;;10234506;28;20557;-75
2024/03/23 19:49:08;;;;;;;0.90;0.70;;;;;;;;;;10238729;28;20100;-75
2024/03/23 19:54:11;;;;;;;0.70;0.70;;;;;;;;;;10236974;28;20459;-75
2024/03/23 19:59:14;;;;;;;0.90;0.75;;;;;;;;;;10236852;28;20043;-76
2024/03/23 20:04:16;;;;;;;0.50;0.50;;;;;;;;;;10240641;28;20062;-75
2024/03/23 20:09:20;;;;;;;1.25;0.85;;;;;;;;;;10231256;28;20051;-75
2024/03/23 20:14:24;;;;;;;1.48;0.98;;;;;;;;;;10232934;28;20541;-75
2024/03/23 20:19:27;;;;;;;2.28;1.40;;;;;;;;;;10250455;28;20043;-75
2024/03/23 20:24:31;;;;;;;2.15;1.08;;;;;;;;;;10239381;28;20046;-75
2024/03/23 20:29:34;;;;;;;2.22;1.20;;;;;;;;;;10230398;28;20043;-76
2024/03/23 20:34:36;;;;;;;2.08;1.30;;;;;;;;;;10237901;28;20400;-75
2024/03/23 20:39:40;;;;;;;2.05;1.10;;;;;;;;;;10248805;28;20879;-75
2024/03/23 20:44:43;;;;;;;0.88;0.70;;;;;;;;;;10260417;28;20077;-76
2024/03/23 20:49:45;;;;;;;2.22;0.88;;;;;;;;;;10252459;28;20058;-75
2024/03/23 20:54:49;;;;;;;0.85;0.60;;;;;;;;;;10249182;28;20320;-75
2024/03/23 20:59:52;;;;;;;1.33;0.60;;;;;;;;;;10248011;28;20518;-75
2024/03/23 21:04:54;;;;;;;2.72;0.85;;;;;;;;;;10247102;28;20126;-75
2024/03/23 21:09:58;;;;;;;0.50;0.50;;;;;;;;;;10253572;28;20129;-75
2024/03/23 21:15:00;;;;;;;0.70;0.60;;;;;;;;;;10265251;28;20524;-75
2024/03/23 21:20:04;;;;;;;1.23;0.43;;;;;;;;;;10278243;28;20086;-75
2024/03/23 21:25:10;;;;;;;1.35;0.65;;;;;;;;;;10269188;28;20472;-75
2024/03/23 21:30:12;;;;;;;0.52;0.52;;;;;;;;;;10278148;28;20053;-75
2024/03/23 21:35:16;;;;;;;1.00;0.50;;;;;;;;;;10241120;28;20039;-75
2024/03/23 21:40:20;;;;;;;0.60;0.50;;;;;;;;;;10241765;28;20115;-75
2024/03/23 21:45:23;;;;;;;1.30;0.63;;;;;;;;;;10249593;28;20142;-75
2024/03/23 21:50:27;;;;;;;1.85;0.60;;;;;;;;;;10250272;28;20043;-75
2024/03/23 21:55:31;;;;;;;1.08;0.93;;;;;;;;;;10257323;28;20051;-75
2024/03/23 22:00:33;;;;;;;1.10;0.73;;;;;;;;;;10251842;28;20445;-75
2024/03/23 22:05:36;;;;;;;1.20;0.63;;;;;;;;;;10252935;28;20122;-75
2024/03/23 22:10:43;;;;;;;0.90;0.80;;;;;;;;;;10243373;28;20045;-75
2024/03/23 22:15:47;;;;;;;1.25;0.70;;;;;;;;;;10246566;28;20051;-75
2024/03/23 22:20:56;;;;;;;1.05;0.60;;;;;;;;;;10224995;28;20141;-75
2024/03/23 22:26:01;;;;;;;2.03;0.90;;;;;;;;;;10245286;28;20039;-75
2024/03/23 22:31:05;;;;;;;2.10;0.80;;;;;;;;;;10256432;28;20423;-75
2024/03/23 22:36:08;;;;;;;2.10;0.80;;;;;;;;;;10242304;28;20099;-75
2024/03/23 22:41:11;;;;;;;1.85;0.80;;;;;;;;;;10241253;28;20053;-75
2024/03/23 22:46:14;;;;;;;1.17;0.90;;;;;;;;;;10251997;28;20222;-75
2024/03/23 22:51:16;;;;;;;1.95;0.95;;;;;;;;;;10244962;28;20122;-75
2024/03/23 22:56:20;;;;;;;1.48;0.80;;;;;;;;;;10283965;28;20126;-75
2024/03/23 23:01:23;;;;;;;1.58;0.85;;;;;;;;;;10252910;28;20050;-75
2024/03/23 23:06:25;;;;;;;1.50;0.77;;;;;;;;;;10241912;28;20035;-75
2024/03/23 23:11:29;;;;;;;1.15;0.70;;;;;;;;;;10259092;28;20039;-75
2024/03/23 23:16:32;;;;;;;4.10;0.90;;;;;;;;;;10257352;28;20142;-75
2024/03/23 23:21:35;;;;;;;0.82;0.70;;;;;;;;;;10272702;28;20430;-75
2024/03/23 23:26:38;;;;;;;0.70;0.70;;;;;;;;;;10252227;28;20134;-75
2024/03/23 23:31:47;;;;;;;1.20;0.60;;;;;;;;;;10241145;28;20305;-75
2024/03/23 23:36:49;;;;;;;1.02;0.68;;;;;;;;;;10240237;28;20407;-75
2024/03/23 23:41:53;;;;;;;1.73;0.80;;;;;;;;;;10232028;28;20055;-75
2024/03/23 23:46:56;;;;;;;1.10;0.60;;;;;;;;;;10248681;28;20039;-75
2024/03/23 23:52:03;;;;;;;1.90;1.00;;;;;;;;;;10267139;28;20050;-74
2024/03/23 23:57:10;;;;;;;0.50;0.50;;;;;;;;;;10257138;28;20516;-75
